Scan Trans — JXGT — position and weather

sailwx.info

Track history (hours):
 
Tides and Currents Weather Stations Pressure Air Temp Water Temp Dewpoint Dewpoint Depression Visibility Wind Speed Wind Dir Waves Ship Positions

Scan Trans

Last reported at 2017-Oct-19 22:01 UTC. Time now 2017-Oct-19 22:12 UTC.
Position N 70°35' E 023°36'.

Length 52 m; draft 4 m.

Type: Ship. MMSI: 257228000.

Date/timePositionNaut miles runAvg speedWind from/ knotsBaromVisibWave heightAir tempDewpointWater temp
2017-Oct-19 22:01N 70°35' E 023°36'3 6.2
2017-Oct-19 21:30N 70°38' E 023°40'0 0.0
2017-Oct-19 21:00N 70°38' E 023°40'0 0.0
2017-Oct-19 20:30N 70°38' E 023°40'0 0.0
2017-Oct-19 20:01N 70°38' E 023°40'0 0.0
2017-Oct-19 19:30N 70°38' E 023°40'0 0.0
2017-Oct-19 19:00N 70°38' E 023°40'0 0.0
2017-Oct-19 18:31N 70°38' E 023°40'0 0.0
2017-Oct-19 18:00N 70°38' E 023°40'0 0.0
2017-Oct-19 17:30N 70°38' E 023°40'0 0.0
2017-Oct-19 17:00N 70°38' E 023°40'0 0.0
2017-Oct-19 16:31N 70°38' E 023°40'0 0.0
2017-Oct-19 16:00N 70°38' E 023°40'0 0.0
2017-Oct-19 15:30N 70°38' E 023°40'5 9.1
2017-Oct-19 15:00N 70°38' E 023°26'5 9.6
2017-Oct-19 14:30N 70°35' E 023°14'510.8
2017-Oct-19 14:00N 70°32' E 023°01'510.5
2017-Oct-19 13:30N 70°30' E 022°47'510.2
2017-Oct-19 13:00N 70°28' E 022°33'5 9.7
2017-Oct-19 12:30N 70°27' E 022°19'5 9.6
2017-Oct-19 12:00N 70°26' E 022°05'5 9.5
2017-Oct-19 11:30N 70°25' E 021°51'5 9.4
2017-Oct-19 11:01N 70°23' E 021°38'5 9.6
2017-Oct-19 10:30N 70°19' E 021°28'5 9.6
2017-Oct-19 10:00N 70°16' E 021°18'5 9.4
2017-Oct-19 09:30N 70°13' E 021°08'5 9.6
2017-Oct-19 09:00N 70°08' E 021°01'5 9.4
2017-Oct-19 08:31N 70°04' E 020°55'5 9.0
2017-Oct-19 08:00N 70°02' E 020°43'5 9.3
2017-Oct-19 07:30N 70°01' E 020°30'5 9.4
2017-Oct-19 07:00N 69°59' E 020°17'5 9.2
2017-Oct-19 06:30N 69°57' E 020°06'5 9.6
2017-Oct-19 06:00N 69°54' E 019°55'5 9.5
2017-Oct-19 05:30N 69°51' E 019°44'5 9.6
2017-Oct-19 04:59N 69°49' E 019°31'5 9.7
2017-Oct-19 04:30N 69°47' E 019°18'5 9.9
2017-Oct-19 04:00N 69°45' E 019°06'510.0
2017-Oct-19 03:31N 69°40' E 019°00'5 9.6
2017-Oct-19 03:00N 69°36' E 018°52'4 7.8
2017-Oct-19 02:30N 69°33' E 018°44'4 8.1
2017-Oct-19 02:00N 69°32' E 018°33'5 9.7
2017-Oct-19 01:30N 69°30' E 018°21'5 9.6
2017-Oct-19 01:00N 69°28' E 018°08'5 9.7
2017-Oct-19 00:30N 69°23' E 018°06'5 9.3
2017-Oct-19 00:00N 69°19' E 017°60'5 9.7
2017-Oct-18 23:30N 69°14' E 017°58'4 8.1
2017-Oct-18 22:59N 69°10' E 017°58'5 9.9
2017-Oct-18 22:30N 69°08' E 017°46'5 9.9
2017-Oct-18 22:00N 69°07' E 017°33'5 9.4
2017-Oct-18 21:30N 69°04' E 017°22'5 9.8
2017-Oct-18 21:00N 68°60' E 017°15'5 9.6
2017-Oct-18 20:30N 68°56' E 017°06'5 9.3
2017-Oct-18 20:00N 68°52' E 016°59'5 9.4
2017-Oct-18 19:30N 68°48' E 016°52'5 9.1
2017-Oct-18 19:00N 68°44' E 016°46'5 9.3
2017-Oct-18 18:30N 68°40' E 016°39'5 9.2
2017-Oct-18 18:00N 68°36' E 016°33'4 7.1
2017-Oct-18 17:30N 68°33' E 016°27'4 8.5
2017-Oct-18 17:00N 68°33' E 016°16'4 8.8
2017-Oct-18 16:30N 68°30' E 016°08'5 9.2
2017-Oct-18 16:00N 68°26' E 016°03'5 9.4
2017-Oct-18 15:30N 68°21' E 015°57'5 9.6
2017-Oct-18 15:00N 68°18' E 015°48'9 9.5
2017-Oct-18 14:00N 68°11' E 015°30'5 9.3
2017-Oct-18 13:30N 68°08' E 015°21'5 9.4
2017-Oct-18 13:00N 68°05' E 015°12'510.0
2017-Oct-18 12:30N 68°01' E 015°02'5 9.8
2017-Oct-18 12:00N 67°58' E 014°53'5 9.3
2017-Oct-18 11:30N 67°54' E 014°45'5 9.0
2017-Oct-18 11:00N 67°50' E 014°39'5 9.2
2017-Oct-18 10:30N 67°47' E 014°32'5 9.5
2017-Oct-18 10:00N 67°42' E 014°31'5 9.8
2017-Oct-18 09:30N 67°37' E 014°30'5 9.6
2017-Oct-18 09:00N 67°32' E 014°30'5 9.7
2017-Oct-18 08:31N 67°28' E 014°28'510.4
2017-Oct-18 08:01N 67°23' E 014°25'510.5
2017-Oct-18 07:30N 67°18' E 014°17'510.0
2017-Oct-18 07:01N 67°14' E 014°10'510.0
2017-Oct-18 06:30N 67°10' E 014°03'4 8.6
2017-Oct-18 06:00N 67°07' E 013°55'1 2.0
2017-Oct-18 05:30N 67°06' E 013°56'5 9.7
2017-Oct-18 05:00N 67°02' E 013°48'5 9.9
2017-Oct-18 04:30N 66°60' E 013°38'5 9.1
2017-Oct-18 04:00N 66°57' E 013°29'4 8.8
2017-Oct-18 03:30N 66°53' E 013°23'5 9.2
2017-Oct-18 03:00N 66°49' E 013°16'5 9.5
2017-Oct-18 02:30N 66°45' E 013°12'5 9.7
2017-Oct-18 02:01N 66°40' E 013°08'5 9.6
2017-Oct-18 01:30N 66°36' E 013°05'4 8.7
2017-Oct-18 01:00N 66°32' E 012°59'5 9.7
2017-Oct-18 00:30N 66°27' E 012°59'5 9.9
2017-Oct-18 00:00N 66°22' E 012°58'5 9.9
2017-Oct-17 23:30N 66°17' E 012°56'5 9.9
2017-Oct-17 23:01N 66°13' E 012°53'5 9.9
2017-Oct-17 22:30N 66°08' E 012°48'510.2
2017-Oct-17 22:00N 66°04' E 012°40'5 9.9
2017-Oct-17 21:30N 66°00' E 012°32'5 9.8
2017-Oct-17 21:01N 65°56' E 012°25'5 9.8
2017-Oct-17 20:30N 65°52' E 012°22'5 9.8
2017-Oct-17 20:00N 65°47' E 012°20'5 9.9
2017-Oct-17 19:30N 65°42' E 012°17'510.2
2017-Oct-17 19:00N 65°37' E 012°14'510.0
2017-Oct-17 18:30N 65°32' E 012°12'4 8.7
2017-Oct-17 18:00N 65°28' E 012°11'5 9.8
2017-Oct-17 17:30N 65°23' E 012°07'5 9.8
2017-Oct-17 17:00N 65°19' E 012°00'5 9.7
2017-Oct-17 16:30N 65°15' E 011°55'5 9.7
2017-Oct-17 16:00N 65°10' E 011°51'5 9.6
2017-Oct-17 15:30N 65°05' E 011°47'5 9.6
2017-Oct-17 15:00N 65°01' E 011°42'5 9.4
2017-Oct-17 14:30N 64°58' E 011°34'5 9.7
2017-Oct-17 14:01N 64°55' E 011°24'5 9.1
2017-Oct-17 13:31N 64°52' E 011°17'1 2.1
2017-Oct-17 13:00N 64°52' E 011°15'0 0.3
2017-Oct-17 12:30N 64°52' E 011°14'5 8.9
2017-Oct-17 12:00N 64°48' E 011°07'5 9.7
2017-Oct-17 11:30N 64°45' E 010°60'5 9.6
2017-Oct-17 11:00N 64°41' E 010°53'5 9.4
2017-Oct-17 10:30N 64°37' E 010°45'5 9.8
2017-Oct-17 10:00N 64°34' E 010°38'5 9.0
2017-Oct-17 09:30N 64°31' E 010°30'4 7.9
2017-Oct-17 09:00N 64°27' E 010°27'5 9.3
2017-Oct-17 08:30N 64°23' E 010°24'5 9.7
2017-Oct-17 08:01N 64°18' E 010°20'5 9.1
2017-Oct-17 07:30N 64°14' E 010°15'5 9.4
2017-Oct-17 06:59N 64°10' E 010°08'5 9.6
2017-Oct-17 06:30N 64°06' E 010°02'4 7.6
2017-Oct-17 06:00N 64°03' E 010°02'5 9.5
2017-Oct-17 05:29N 63°59' E 009°54'5 9.4
2017-Oct-17 05:00N 63°55' E 009°47'5 9.4
2017-Oct-17 04:30N 63°52' E 009°41'5 9.9
2017-Oct-17 04:00N 63°48' E 009°34'3 6.0
2017-Oct-17 03:30N 63°45' E 009°38'3 6.6
2017-Oct-17 03:00N 63°46' E 009°46'0 0.0
2017-Oct-17 02:30N 63°46' E 009°46'0 0.0
2017-Oct-17 01:59N 63°46' E 009°46'0 0.0
2017-Oct-17 01:30N 63°46' E 009°46'0 0.0
2017-Oct-17 01:00N 63°46' E 009°46'0 0.0
2017-Oct-17 00:29N 63°46' E 009°46'0 0.0
2017-Oct-17 00:00N 63°46' E 009°46'0 0.0
2017-Oct-16 23:30N 63°46' E 009°46'0 0.0
2017-Oct-16 23:00N 63°46' E 009°46'0 0.0
2017-Oct-16 22:30N 63°46' E 009°46'3 7.0
2017-Oct-16 22:00N 63°45' E 009°38'4 8.8
2017-Oct-16 21:30N 63°45' E 009°28'5 9.0
2017-Oct-16 21:00N 63°46' E 009°18'5 9.3
2017-Oct-16 20:30N 63°47' E 009°08'5 9.1
2017-Oct-16 19:59N 63°49' E 008°58'5 9.3
2017-Oct-16 19:30N 63°50' E 008°48'5 9.0
2017-Oct-16 19:00N 63°49' E 008°38'4 8.8
2017-Oct-16 18:30N 63°46' E 008°31'3 6.5
2017-Oct-16 18:00N 63°43' E 008°34'0 0.0
2017-Oct-16 17:30N 63°43' E 008°34'0 0.0
2017-Oct-16 17:00N 63°43' E 008°34'0 0.0
2017-Oct-16 16:30N 63°43' E 008°34'0 0.0
2017-Oct-16 16:00N 63°43' E 008°34'0 0.0
2017-Oct-16 15:30N 63°43' E 008°34'0 0.0
2017-Oct-16 15:00N 63°43' E 008°34'0 0.0
2017-Oct-16 14:30N 63°43' E 008°34'0 0.0
2017-Oct-16 13:30N 63°43' E 008°34'0 0.0
2017-Oct-16 13:00N 63°43' E 008°34'0 0.0
2017-Oct-16 12:30N 63°43' E 008°34'0 0.0
2017-Oct-16 12:00N 63°43' E 008°34'0 0.0
2017-Oct-16 11:30N 63°43' E 008°34'0 0.2
2017-Oct-16 11:00N 63°43' E 008°34'3 6.3
2017-Oct-16 10:30N 63°46' E 008°36'4 8.0
2017-Oct-16 10:00N 63°49' E 008°40'4 7.9
2017-Oct-16 09:30N 63°50' E 008°49'4 8.2
2017-Oct-16 09:00N 63°48' E 008°58'4 8.4
2017-Oct-16 08:30N 63°47' E 009°07'4 8.0
2017-Oct-16 08:01N 63°46' E 009°15'4 8.1
2017-Oct-16 07:30N 63°45' E 009°24'4 8.5
2017-Oct-16 07:01N 63°45' E 009°34'4 8.3
2017-Oct-16 06:30N 63°46' E 009°43'1 2.0
2017-Oct-16 06:00N 63°46' E 009°46'0 0.0
2017-Oct-16 05:30N 63°46' E 009°46'0 0.0
2017-Oct-16 05:00N 63°46' E 009°46'0 0.0
2017-Oct-16 04:30N 63°46' E 009°46'0 0.0
2017-Oct-16 04:01N 63°46' E 009°46'0 0.0
2017-Oct-16 03:31N 63°46' E 009°46'0 0.0
2017-Oct-16 03:00N 63°46' E 009°46'0 0.0
2017-Oct-16 02:30N 63°46' E 009°46'0 0.0
2017-Oct-16 02:00N 63°46' E 009°46'0 0.0
2017-Oct-16 01:30N 63°46' E 009°46'0 0.0
2017-Oct-16 01:00N 63°46' E 009°46'0 0.0
2017-Oct-16 00:30N 63°46' E 009°46'0 0.0
2017-Oct-16 00:00N 63°46' E 009°46'4 7.6
2017-Oct-15 23:31N 63°45' E 009°37'3 5.5
2017-Oct-15 23:00N 63°48' E 009°34'4 8.5
2017-Oct-15 22:30N 63°51' E 009°40'4 8.2
2017-Oct-15 22:00N 63°53' E 009°48'2 3.9
2017-Oct-15 21:31N 63°53' E 009°52'0 0.0
2017-Oct-15 21:00N 63°53' E 009°52'0 0.0
2017-Oct-15 20:30N 63°53' E 009°52'0 0.0
2017-Oct-15 20:00N 63°53' E 009°52'0 0.0
2017-Oct-15 19:30N 63°53' E 009°52'1 2.1
2017-Oct-15 19:00N 63°54' E 009°53'4 8.4
2017-Oct-15 18:30N 63°58' E 009°55'1 2.8
2017-Oct-15 18:00N 63°60' E 009°56'2 3.0
2017-Oct-15 17:30N 64°01' E 009°58'4 7.2
2017-Oct-15 17:00N 64°04' E 010°02'3 7.0
2017-Oct-15 16:30N 64°07' E 010°04'4 8.6
2017-Oct-15 16:00N 64°11' E 010°09'4 8.8
2017-Oct-15 15:30N 64°14' E 010°16'4 7.8
2017-Oct-15 15:00N 64°18' E 010°21'8 7.5
2017-Oct-15 13:59N 64°25' E 010°26'4 8.0
2017-Oct-15 13:30N 64°29' E 010°27'4 7.1
2017-Oct-15 13:00N 64°32' E 010°31'3 7.1
2017-Oct-15 12:31N 64°35' E 010°35'4 7.0
2017-Oct-15 12:00N 64°38' E 010°39'4 7.1
2017-Oct-15 11:31N 64°41' E 010°43'4 7.2
2017-Oct-15 11:01N 64°44' E 010°48'4 7.9
2017-Oct-15 10:31N 64°46' E 010°55'4 7.7
2017-Oct-15 10:01N 64°47' E 011°04'4 8.2
2017-Oct-15 09:31N 64°50' E 011°11'3 5.1
2017-Oct-15 09:01N 64°52' E 011°15'0 0.0
2017-Oct-15 08:30N 64°52' E 011°15'0 0.0
2017-Oct-15 08:00N 64°52' E 011°15'0 0.0
2017-Oct-15 07:31N 64°52' E 011°15'0 0.0
2017-Oct-15 07:00N 64°52' E 011°15'0 0.0
2017-Oct-15 06:30N 64°52' E 011°15'0 0.0
2017-Oct-15 06:01N 64°52' E 011°15'0 0.0
2017-Oct-15 05:30N 64°52' E 011°15'0 0.0
2017-Oct-15 05:01N 64°52' E 011°15'0 0.0
2017-Oct-15 04:30N 64°52' E 011°15'0 0.0
2017-Oct-15 04:00N 64°52' E 011°15'0 0.0
2017-Oct-15 03:31N 64°52' E 011°15'0 0.0
2017-Oct-15 03:00N 64°52' E 011°15'0 0.0
2017-Oct-15 02:31N 64°52' E 011°15'0 0.0
2017-Oct-15 02:00N 64°52' E 011°15'0 0.0
2017-Oct-15 01:30N 64°52' E 011°15'0 0.0
2017-Oct-15 01:01N 64°52' E 011°15'0 0.0
2017-Oct-15 00:30N 64°52' E 011°15'0 0.0
2017-Oct-15 00:01N 64°52' E 011°15'0 0.0
2017-Oct-14 23:30N 64°52' E 011°15'0 0.0
2017-Oct-14 23:01N 64°52' E 011°15'0 0.0
2017-Oct-14 22:31N 64°52' E 011°15'0 0.0
2017-Oct-14 22:00N 64°52' E 011°15'0 0.0
2017-Oct-14 21:30N 64°52' E 011°15'0 0.0
2017-Oct-14 21:01N 64°52' E 011°15'0 0.0
2017-Oct-14 20:31N 64°52' E 011°15'0 0.0
2017-Oct-14 20:01N 64°52' E 011°15'0 0.0
2017-Oct-14 19:31N 64°52' E 011°15'0 0.0
2017-Oct-14 19:00N 64°52' E 011°15'0 0.0
2017-Oct-14 18:31N 64°52' E 011°15'0 0.0
2017-Oct-14 18:00N 64°52' E 011°15'0 0.0
2017-Oct-14 17:31N 64°52' E 011°15'0 0.0
2017-Oct-14 17:00N 64°52' E 011°15'0 0.0
2017-Oct-14 16:30N 64°52' E 011°15'2 3.5
2017-Oct-14 16:01N 64°53' E 011°18'4 7.7
2017-Oct-14 15:31N 64°55' E 011°25'4 8.2
2017-Oct-14 15:01N 64°58' E 011°31'4 8.2
2017-Oct-14 14:31N 65°01' E 011°40'4 8.2
2017-Oct-14 14:00N 65°04' E 011°45'4 8.4
2017-Oct-14 13:30N 65°08' E 011°49'4 8.4
2017-Oct-14 13:00N 65°12' E 011°52'4 8.0
2017-Oct-14 12:30N 65°15' E 011°56'4 8.0
2017-Oct-14 12:00N 65°19' E 012°00'4 8.1
2017-Oct-14 11:30N 65°23' E 012°05'4 8.3
2017-Oct-14 11:00N 65°26' E 012°10'3 7.0
2017-Oct-14 10:30N 65°30' E 012°12'4 8.4
2017-Oct-14 10:00N 65°34' E 012°12'4 8.1
2017-Oct-14 09:30N 65°38' E 012°12'4 8.1
2017-Oct-14 09:00N 65°42' E 012°12'4 8.2
2017-Oct-14 08:30N 65°46' E 012°11'4 8.0
2017-Oct-14 08:00N 65°50' E 012°11'4 7.9
2017-Oct-14 07:30N 65°54' E 012°11'4 7.8
2017-Oct-14 07:00N 65°58' E 012°12'3 5.3
2017-Oct-14 06:31N 66°00' E 012°16'0 0.0
2017-Oct-14 06:00N 66°00' E 012°16'0 0.0
2017-Oct-14 05:30N 66°00' E 012°16'0 0.0
2017-Oct-14 05:00N 66°00' E 012°16'0 0.0
2017-Oct-14 04:30N 66°00' E 012°16'0 0.0
2017-Oct-14 04:00N 66°00' E 012°16'0 0.0
2017-Oct-14 03:30N 66°00' E 012°16'0 0.0
2017-Oct-14 03:00N 66°00' E 012°16'0 0.0
2017-Oct-14 02:30N 66°00' E 012°16'0 0.0
2017-Oct-14 02:00N 66°00' E 012°16'0 0.0
2017-Oct-14 01:30N 66°00' E 012°16'0 0.0
2017-Oct-14 01:00N 66°00' E 012°16'0 0.0
2017-Oct-14 00:30N 66°00' E 012°16'0 0.0
2017-Oct-14 00:00N 66°00' E 012°16'0 0.0
2017-Oct-13 23:30N 66°00' E 012°16'0 0.0
2017-Oct-13 23:00N 66°00' E 012°16'0 0.0
2017-Oct-13 22:30N 66°00' E 012°16'0 0.0
2017-Oct-13 22:00N 66°00' E 012°16'0 0.0
2017-Oct-13 21:30N 66°00' E 012°16'0 0.0
2017-Oct-13 21:00N 66°00' E 012°16'0 0.0
2017-Oct-13 20:30N 66°00' E 012°16'0 0.0
2017-Oct-13 20:00N 66°00' E 012°16'0 0.0
2017-Oct-13 19:30N 66°00' E 012°16'0 0.0
2017-Oct-13 19:00N 66°00' E 012°16'0 0.0
2017-Oct-13 18:30N 66°00' E 012°16'0 0.0
2017-Oct-13 18:00N 66°00' E 012°16'0 0.0
2017-Oct-13 17:30N 66°00' E 012°16'0 0.0
2017-Oct-13 17:00N 66°00' E 012°16'0 0.0
2017-Oct-13 16:30N 66°00' E 012°16'0 0.0
2017-Oct-13 16:00N 66°00' E 012°16'0 0.0
2017-Oct-13 15:30N 66°00' E 012°16'0 0.0
2017-Oct-13 15:00N 66°00' E 012°16'0 0.0
2017-Oct-13 14:30N 66°00' E 012°16'0 0.2
2017-Oct-13 14:00N 66°00' E 012°16'3 5.2
2017-Oct-13 13:30N 66°03' E 012°14'4 9.0
2017-Oct-13 13:00N 66°06' E 012°21'5 8.9
2017-Oct-13 12:30N 66°10' E 012°25'4 8.8
2017-Oct-13 12:00N 66°14' E 012°31'4 8.9
2017-Oct-13 11:30N 66°17' E 012°40'5 9.3
2017-Oct-13 11:00N 66°19' E 012°49'4 8.9
2017-Oct-13 10:30N 66°22' E 012°57'5 9.1
2017-Oct-13 10:00N 66°27' E 012°59'4 8.9
2017-Oct-13 09:30N 66°31' E 012°58'4 8.4
2017-Oct-13 09:00N 66°35' E 013°04'4 8.8
2017-Oct-13 08:30N 66°39' E 013°06'4 8.9
2017-Oct-13 08:00N 66°43' E 013°10'12 8.7
2017-Oct-13 06:38N 66°54' E 013°25'1 9.0
2017-Oct-13 06:30N 66°54' E 013°27'4 7.8
2017-Oct-13 06:00N 66°58' E 013°32'4 9.0
2017-Oct-13 05:30N 67°01' E 013°41'5 9.3
2017-Oct-13 05:00N 67°03' E 013°51'4 8.9
2017-Oct-13 04:30N 67°06' E 013°59'4 8.6
2017-Oct-13 04:00N 67°10' E 014°04'4 8.7
2017-Oct-13 03:30N 67°14' E 014°10'4 8.8
2017-Oct-13 03:00N 67°18' E 014°16'4 8.8
2017-Oct-13 02:30N 67°21' E 014°22'4 8.7
2017-Oct-13 02:01N 67°25' E 014°27'4 8.8
2017-Oct-13 01:31N 67°29' E 014°29'63 6.9
2017-Oct-12 16:24N 68°22' E 015°59'4 9.2
2017-Oct-12 16:00N 68°26' E 016°03'5 9.2
2017-Oct-12 15:30N 68°30' E 016°08'4 8.7
2017-Oct-12 15:00N 68°33' E 016°15'4 8.6
2017-Oct-12 14:30N 68°33' E 016°27'4 8.2
2017-Oct-12 14:00N 68°37' E 016°33'5 9.4
2017-Oct-12 13:30N 68°41' E 016°39'5 9.3
2017-Oct-12 12:59N 68°45' E 016°42'4 9.1
2017-Oct-12 12:31N 68°50' E 016°44'5 9.4
2017-Oct-12 12:00N 68°54' E 016°44'2 3.3
2017-Oct-12 11:30N 68°56' E 016°43'0 0.8
2017-Oct-12 11:00N 68°56' E 016°42'0 0.2
2017-Oct-12 10:30N 68°56' E 016°42'4 8.6
2017-Oct-12 10:00N 68°52' E 016°34'5 9.2
2017-Oct-12 09:29N 68°54' E 016°22'4 9.0
2017-Oct-12 09:00N 68°57' E 016°12'5 9.3
2017-Oct-12 08:30N 68°58' E 016°00'4 8.9
2017-Oct-12 08:00N 68°59' E 015°48'4 8.8
2017-Oct-12 07:30N 68°57' E 015°36'5 9.2
2017-Oct-12 07:00N 68°53' E 015°32'4 8.1
2017-Oct-12 06:30N 68°53' E 015°21'2 3.4
2017-Oct-12 06:00N 68°54' E 015°17'0 0.0
2017-Oct-12 05:30N 68°54' E 015°17'0 0.0
2017-Oct-12 05:01N 68°54' E 015°17'0 0.0
2017-Oct-12 04:30N 68°54' E 015°17'0 0.0
2017-Oct-12 04:00N 68°54' E 015°17'0 0.0
2017-Oct-12 03:30N 68°54' E 015°17'0 0.0
2017-Oct-12 03:00N 68°54' E 015°17'2 3.9
2017-Oct-12 02:31N 68°53' E 015°21'5 8.9
2017-Oct-12 02:00N 68°48' E 015°26'510.1
2017-Oct-12 01:30N 68°43' E 015°26'5 9.7
2017-Oct-12 01:00N 68°39' E 015°22'5 9.8
2017-Oct-12 00:30N 68°35' E 015°13'5 9.4
2017-Oct-12 00:00N 68°31' E 015°10'4 8.3
2017-Oct-11 23:31N 68°26' E 015°10'4 8.4
2017-Oct-11 23:00N 68°23' E 015°05'5 9.2
2017-Oct-11 22:30N 68°19' E 014°58'5 9.3
2017-Oct-11 22:01N 68°14' E 014°56'5 9.2
2017-Oct-11 21:30N 68°10' E 014°53'5 9.1
2017-Oct-11 21:00N 68°05' E 014°51'5 9.5
2017-Oct-11 20:30N 68°01' E 014°48'5 9.6
2017-Oct-11 20:00N 67°56' E 014°45'5 9.3
2017-Oct-11 19:30N 67°51' E 014°42'5 9.3
2017-Oct-11 19:00N 67°48' E 014°33'5 9.3
2017-Oct-11 18:30N 67°44' E 014°31'5 9.6
2017-Oct-11 18:00N 67°39' E 014°31'5 9.9
2017-Oct-11 17:30N 67°34' E 014°30'5 9.7
2017-Oct-11 17:01N 67°29' E 014°29'23 1.3
2017-Oct-11 00:00N 67°09' E 014°02'5 9.9
2017-Oct-10 23:31N 67°05' E 013°55'5 9.6
2017-Oct-10 23:01N 67°02' E 013°46'5 9.6
2017-Oct-10 22:30N 66°59' E 013°35'4 8.9
2017-Oct-10 22:00N 66°55' E 013°29'5 9.8
2017-Oct-10 21:30N 66°52' E 013°21'5 9.5
2017-Oct-10 21:00N 66°48' E 013°15'5 9.8
2017-Oct-10 20:30N 66°43' E 013°11'510.0
2017-Oct-10 20:00N 66°38' E 013°06'5 9.8
2017-Oct-10 19:30N 66°34' E 013°04'4 8.3
2017-Oct-10 19:00N 66°30' E 012°59'5 9.6
2017-Oct-10 18:30N 66°25' E 012°59'5 9.8
2017-Oct-10 18:00N 66°20' E 012°57'5 9.8
2017-Oct-10 17:30N 66°15' E 012°55'5 9.7
2017-Oct-10 17:01N 66°11' E 012°51'5 9.5
2017-Oct-10 16:31N 66°07' E 012°45'510.2
2017-Oct-10 16:00N 66°03' E 012°37'510.0
2017-Oct-10 15:30N 65°59' E 012°29'510.5
2017-Oct-10 15:00N 65°54' E 012°22'1010.3
2017-Oct-10 14:00N 65°44' E 012°18'510.0
2017-Oct-10 13:30N 65°39' E 012°15'510.0
2017-Oct-10 13:00N 65°34' E 012°14'5 9.8
2017-Oct-10 12:30N 65°30' E 012°12'4 8.9
2017-Oct-10 12:00N 65°25' E 012°09'5 9.8
2017-Oct-10 11:30N 65°21' E 012°03'5 9.9
2017-Oct-10 11:01N 65°17' E 011°58'510.0
2017-Oct-10 10:31N 65°12' E 011°53'5 9.6
2017-Oct-10 10:01N 65°08' E 011°49'5 9.6
2017-Oct-10 09:31N 65°03' E 011°44'5 9.5
2017-Oct-10 09:00N 64°60' E 011°37'5 9.4
2017-Oct-10 08:31N 64°57' E 011°28'5 9.6
2017-Oct-10 08:01N 64°54' E 011°20'4 7.2
2017-Oct-10 07:31N 64°51' E 011°13'5 9.5
2017-Oct-10 07:00N 64°48' E 011°06'5 9.7
2017-Oct-10 06:30N 64°44' E 010°59'5 9.6
2017-Oct-10 06:00N 64°40' E 010°52'5 9.3
2017-Oct-10 05:30N 64°36' E 010°44'4 9.0
2017-Oct-10 05:01N 64°33' E 010°38'5 9.1
2017-Oct-10 04:30N 64°29' E 010°32'5 9.0
2017-Oct-10 04:00N 64°25' E 010°27'5 9.8
2017-Oct-10 03:30N 64°21' E 010°22'5 9.7
2017-Oct-10 03:00N 64°16' E 010°19'4 8.5
2017-Oct-10 02:30N 64°13' E 010°13'5 9.8
2017-Oct-10 02:00N 64°09' E 010°07'5 9.5
2017-Oct-10 01:30N 64°05' E 010°00'4 7.4
2017-Oct-10 01:00N 64°01' E 009°60'5 9.5
2017-Oct-10 00:31N 63°57' E 009°55'4 8.4
2017-Oct-10 00:01N 63°53' E 009°52'0 0.0
2017-Oct-09 23:30N 63°53' E 009°52'0 0.0
2017-Oct-09 23:01N 63°53' E 009°52'0 0.0
2017-Oct-09 22:30N 63°53' E 009°52'  
Track history (hours):
 
Tides and Currents Weather Stations Pressure Air Temp Water Temp Dewpoint Dewpoint Depression Visibility Wind Speed Wind Dir Waves Ship Positions

Scan Trans

Last reported at 2017-Oct-19 22:01 UTC. Time now 2017-Oct-19 22:12 UTC.
Position N 70°35' E 023°36'.

Length 52 m; draft 4 m.

Type: Ship. MMSI: 257228000.

Date/timePositionNaut miles runAvg speedWind from/ knotsBaromVisibWave heightAir tempDewpointWater temp
2017-Oct-19 22:01N 70°35' E 023°36'3 6.2
2017-Oct-19 21:30N 70°38' E 023°40'0 0.0
2017-Oct-19 21:00N 70°38' E 023°40'0 0.0
2017-Oct-19 20:30N 70°38' E 023°40'0 0.0
2017-Oct-19 20:01N 70°38' E 023°40'0 0.0
2017-Oct-19 19:30N 70°38' E 023°40'0 0.0
2017-Oct-19 19:00N 70°38' E 023°40'0 0.0
2017-Oct-19 18:31N 70°38' E 023°40'0 0.0
2017-Oct-19 18:00N 70°38' E 023°40'0 0.0
2017-Oct-19 17:30N 70°38' E 023°40'0 0.0
2017-Oct-19 17:00N 70°38' E 023°40'0 0.0
2017-Oct-19 16:31N 70°38' E 023°40'0 0.0
2017-Oct-19 16:00N 70°38' E 023°40'0 0.0
2017-Oct-19 15:30N 70°38' E 023°40'5 9.1
2017-Oct-19 15:00N 70°38' E 023°26'5 9.6
2017-Oct-19 14:30N 70°35' E 023°14'510.8
2017-Oct-19 14:00N 70°32' E 023°01'510.5
2017-Oct-19 13:30N 70°30' E 022°47'510.2
2017-Oct-19 13:00N 70°28' E 022°33'5 9.7
2017-Oct-19 12:30N 70°27' E 022°19'5 9.6
2017-Oct-19 12:00N 70°26' E 022°05'5 9.5
2017-Oct-19 11:30N 70°25' E 021°51'5 9.4
2017-Oct-19 11:01N 70°23' E 021°38'5 9.6
2017-Oct-19 10:30N 70°19' E 021°28'5 9.6
2017-Oct-19 10:00N 70°16' E 021°18'5 9.4
2017-Oct-19 09:30N 70°13' E 021°08'5 9.6
2017-Oct-19 09:00N 70°08' E 021°01'5 9.4
2017-Oct-19 08:31N 70°04' E 020°55'5 9.0
2017-Oct-19 08:00N 70°02' E 020°43'5 9.3
2017-Oct-19 07:30N 70°01' E 020°30'5 9.4
2017-Oct-19 07:00N 69°59' E 020°17'5 9.2
2017-Oct-19 06:30N 69°57' E 020°06'5 9.6
2017-Oct-19 06:00N 69°54' E 019°55'5 9.5
2017-Oct-19 05:30N 69°51' E 019°44'5 9.6
2017-Oct-19 04:59N 69°49' E 019°31'5 9.7
2017-Oct-19 04:30N 69°47' E 019°18'5 9.9
2017-Oct-19 04:00N 69°45' E 019°06'510.0
2017-Oct-19 03:31N 69°40' E 019°00'5 9.6
2017-Oct-19 03:00N 69°36' E 018°52'4 7.8
2017-Oct-19 02:30N 69°33' E 018°44'4 8.1
2017-Oct-19 02:00N 69°32' E 018°33'5 9.7
2017-Oct-19 01:30N 69°30' E 018°21'5 9.6
2017-Oct-19 01:00N 69°28' E 018°08'5 9.7
2017-Oct-19 00:30N 69°23' E 018°06'5 9.3
2017-Oct-19 00:00N 69°19' E 017°60'5 9.7
2017-Oct-18 23:30N 69°14' E 017°58'4 8.1
2017-Oct-18 22:59N 69°10' E 017°58'5 9.9
2017-Oct-18 22:30N 69°08' E 017°46'5 9.9
2017-Oct-18 22:00N 69°07' E 017°33'5 9.4
2017-Oct-18 21:30N 69°04' E 017°22'5 9.8
2017-Oct-18 21:00N 68°60' E 017°15'5 9.6
2017-Oct-18 20:30N 68°56' E 017°06'5 9.3
2017-Oct-18 20:00N 68°52' E 016°59'5 9.4
2017-Oct-18 19:30N 68°48' E 016°52'5 9.1
2017-Oct-18 19:00N 68°44' E 016°46'5 9.3
2017-Oct-18 18:30N 68°40' E 016°39'5 9.2
2017-Oct-18 18:00N 68°36' E 016°33'4 7.1
2017-Oct-18 17:30N 68°33' E 016°27'4 8.5
2017-Oct-18 17:00N 68°33' E 016°16'4 8.8
2017-Oct-18 16:30N 68°30' E 016°08'5 9.2
2017-Oct-18 16:00N 68°26' E 016°03'5 9.4
2017-Oct-18 15:30N 68°21' E 015°57'5 9.6
2017-Oct-18 15:00N 68°18' E 015°48'9 9.5
2017-Oct-18 14:00N 68°11' E 015°30'5 9.3
2017-Oct-18 13:30N 68°08' E 015°21'5 9.4
2017-Oct-18 13:00N 68°05' E 015°12'510.0
2017-Oct-18 12:30N 68°01' E 015°02'5 9.8
2017-Oct-18 12:00N 67°58' E 014°53'5 9.3
2017-Oct-18 11:30N 67°54' E 014°45'5 9.0
2017-Oct-18 11:00N 67°50' E 014°39'5 9.2
2017-Oct-18 10:30N 67°47' E 014°32'5 9.5
2017-Oct-18 10:00N 67°42' E 014°31'5 9.8
2017-Oct-18 09:30N 67°37' E 014°30'5 9.6
2017-Oct-18 09:00N 67°32' E 014°30'5 9.7
2017-Oct-18 08:31N 67°28' E 014°28'510.4
2017-Oct-18 08:01N 67°23' E 014°25'510.5
2017-Oct-18 07:30N 67°18' E 014°17'510.0
2017-Oct-18 07:01N 67°14' E 014°10'510.0
2017-Oct-18 06:30N 67°10' E 014°03'4 8.6
2017-Oct-18 06:00N 67°07' E 013°55'1 2.0
2017-Oct-18 05:30N 67°06' E 013°56'5 9.7
2017-Oct-18 05:00N 67°02' E 013°48'5 9.9
2017-Oct-18 04:30N 66°60' E 013°38'5 9.1
2017-Oct-18 04:00N 66°57' E 013°29'4 8.8
2017-Oct-18 03:30N 66°53' E 013°23'5 9.2
2017-Oct-18 03:00N 66°49' E 013°16'5 9.5
2017-Oct-18 02:30N 66°45' E 013°12'5 9.7
2017-Oct-18 02:01N 66°40' E 013°08'5 9.6
2017-Oct-18 01:30N 66°36' E 013°05'4 8.7
2017-Oct-18 01:00N 66°32' E 012°59'5 9.7
2017-Oct-18 00:30N 66°27' E 012°59'5 9.9
2017-Oct-18 00:00N 66°22' E 012°58'5 9.9
2017-Oct-17 23:30N 66°17' E 012°56'5 9.9
2017-Oct-17 23:01N 66°13' E 012°53'5 9.9
2017-Oct-17 22:30N 66°08' E 012°48'510.2
2017-Oct-17 22:00N 66°04' E 012°40'5 9.9
2017-Oct-17 21:30N 66°00' E 012°32'5 9.8
2017-Oct-17 21:01N 65°56' E 012°25'5 9.8
2017-Oct-17 20:30N 65°52' E 012°22'5 9.8
2017-Oct-17 20:00N 65°47' E 012°20'5 9.9
2017-Oct-17 19:30N 65°42' E 012°17'510.2
2017-Oct-17 19:00N 65°37' E 012°14'510.0
2017-Oct-17 18:30N 65°32' E 012°12'4 8.7
2017-Oct-17 18:00N 65°28' E 012°11'5 9.8
2017-Oct-17 17:30N 65°23' E 012°07'5 9.8
2017-Oct-17 17:00N 65°19' E 012°00'5 9.7
2017-Oct-17 16:30N 65°15' E 011°55'5 9.7
2017-Oct-17 16:00N 65°10' E 011°51'5 9.6
2017-Oct-17 15:30N 65°05' E 011°47'5 9.6
2017-Oct-17 15:00N 65°01' E 011°42'5 9.4
2017-Oct-17 14:30N 64°58' E 011°34'5 9.7
2017-Oct-17 14:01N 64°55' E 011°24'5 9.1
2017-Oct-17 13:31N 64°52' E 011°17'1 2.1
2017-Oct-17 13:00N 64°52' E 011°15'0 0.3
2017-Oct-17 12:30N 64°52' E 011°14'5 8.9
2017-Oct-17 12:00N 64°48' E 011°07'5 9.7
2017-Oct-17 11:30N 64°45' E 010°60'5 9.6
2017-Oct-17 11:00N 64°41' E 010°53'5 9.4
2017-Oct-17 10:30N 64°37' E 010°45'5 9.8
2017-Oct-17 10:00N 64°34' E 010°38'5 9.0
2017-Oct-17 09:30N 64°31' E 010°30'4 7.9
2017-Oct-17 09:00N 64°27' E 010°27'5 9.3
2017-Oct-17 08:30N 64°23' E 010°24'5 9.7
2017-Oct-17 08:01N 64°18' E 010°20'5 9.1
2017-Oct-17 07:30N 64°14' E 010°15'5 9.4
2017-Oct-17 06:59N 64°10' E 010°08'5 9.6
2017-Oct-17 06:30N 64°06' E 010°02'4 7.6
2017-Oct-17 06:00N 64°03' E 010°02'5 9.5
2017-Oct-17 05:29N 63°59' E 009°54'5 9.4
2017-Oct-17 05:00N 63°55' E 009°47'5 9.4
2017-Oct-17 04:30N 63°52' E 009°41'5 9.9
2017-Oct-17 04:00N 63°48' E 009°34'3 6.0
2017-Oct-17 03:30N 63°45' E 009°38'3 6.6
2017-Oct-17 03:00N 63°46' E 009°46'0 0.0
2017-Oct-17 02:30N 63°46' E 009°46'0 0.0
2017-Oct-17 01:59N 63°46' E 009°46'0 0.0
2017-Oct-17 01:30N 63°46' E 009°46'0 0.0
2017-Oct-17 01:00N 63°46' E 009°46'0 0.0
2017-Oct-17 00:29N 63°46' E 009°46'0 0.0
2017-Oct-17 00:00N 63°46' E 009°46'0 0.0
2017-Oct-16 23:30N 63°46' E 009°46'0 0.0
2017-Oct-16 23:00N 63°46' E 009°46'0 0.0
2017-Oct-16 22:30N 63°46' E 009°46'3 7.0
2017-Oct-16 22:00N 63°45' E 009°38'4 8.8
2017-Oct-16 21:30N 63°45' E 009°28'5 9.0
2017-Oct-16 21:00N 63°46' E 009°18'5 9.3
2017-Oct-16 20:30N 63°47' E 009°08'5 9.1
2017-Oct-16 19:59N 63°49' E 008°58'5 9.3
2017-Oct-16 19:30N 63°50' E 008°48'5 9.0
2017-Oct-16 19:00N 63°49' E 008°38'4 8.8
2017-Oct-16 18:30N 63°46' E 008°31'3 6.5
2017-Oct-16 18:00N 63°43' E 008°34'0 0.0
2017-Oct-16 17:30N 63°43' E 008°34'0 0.0
2017-Oct-16 17:00N 63°43' E 008°34'0 0.0
2017-Oct-16 16:30N 63°43' E 008°34'0 0.0
2017-Oct-16 16:00N 63°43' E 008°34'0 0.0
2017-Oct-16 15:30N 63°43' E 008°34'0 0.0
2017-Oct-16 15:00N 63°43' E 008°34'0 0.0
2017-Oct-16 14:30N 63°43' E 008°34'0 0.0
2017-Oct-16 13:30N 63°43' E 008°34'0 0.0
2017-Oct-16 13:00N 63°43' E 008°34'0 0.0
2017-Oct-16 12:30N 63°43' E 008°34'0 0.0
2017-Oct-16 12:00N 63°43' E 008°34'0 0.0
2017-Oct-16 11:30N 63°43' E 008°34'0 0.2
2017-Oct-16 11:00N 63°43' E 008°34'3 6.3
2017-Oct-16 10:30N 63°46' E 008°36'4 8.0
2017-Oct-16 10:00N 63°49' E 008°40'4 7.9
2017-Oct-16 09:30N 63°50' E 008°49'4 8.2
2017-Oct-16 09:00N 63°48' E 008°58'4 8.4
2017-Oct-16 08:30N 63°47' E 009°07'4 8.0
2017-Oct-16 08:01N 63°46' E 009°15'4 8.1
2017-Oct-16 07:30N 63°45' E 009°24'4 8.5
2017-Oct-16 07:01N 63°45' E 009°34'4 8.3
2017-Oct-16 06:30N 63°46' E 009°43'1 2.0
2017-Oct-16 06:00N 63°46' E 009°46'0 0.0
2017-Oct-16 05:30N 63°46' E 009°46'0 0.0
2017-Oct-16 05:00N 63°46' E 009°46'0 0.0
2017-Oct-16 04:30N 63°46' E 009°46'0 0.0
2017-Oct-16 04:01N 63°46' E 009°46'0 0.0
2017-Oct-16 03:31N 63°46' E 009°46'0 0.0
2017-Oct-16 03:00N 63°46' E 009°46'0 0.0
2017-Oct-16 02:30N 63°46' E 009°46'0 0.0
2017-Oct-16 02:00N 63°46' E 009°46'0 0.0
2017-Oct-16 01:30N 63°46' E 009°46'0 0.0
2017-Oct-16 01:00N 63°46' E 009°46'0 0.0
2017-Oct-16 00:30N 63°46' E 009°46'0 0.0
2017-Oct-16 00:00N 63°46' E 009°46'4 7.6
2017-Oct-15 23:31N 63°45' E 009°37'3 5.5
2017-Oct-15 23:00N 63°48' E 009°34'4 8.5
2017-Oct-15 22:30N 63°51' E 009°40'4 8.2
2017-Oct-15 22:00N 63°53' E 009°48'2 3.9
2017-Oct-15 21:31N 63°53' E 009°52'0 0.0
2017-Oct-15 21:00N 63°53' E 009°52'0 0.0
2017-Oct-15 20:30N 63°53' E 009°52'0 0.0
2017-Oct-15 20:00N 63°53' E 009°52'0 0.0
2017-Oct-15 19:30N 63°53' E 009°52'1 2.1
2017-Oct-15 19:00N 63°54' E 009°53'4 8.4
2017-Oct-15 18:30N 63°58' E 009°55'1 2.8
2017-Oct-15 18:00N 63°60' E 009°56'2 3.0
2017-Oct-15 17:30N 64°01' E 009°58'4 7.2
2017-Oct-15 17:00N 64°04' E 010°02'3 7.0
2017-Oct-15 16:30N 64°07' E 010°04'4 8.6
2017-Oct-15 16:00N 64°11' E 010°09'4 8.8
2017-Oct-15 15:30N 64°14' E 010°16'4 7.8
2017-Oct-15 15:00N 64°18' E 010°21'8 7.5
2017-Oct-15 13:59N 64°25' E 010°26'4 8.0
2017-Oct-15 13:30N 64°29' E 010°27'4 7.1
2017-Oct-15 13:00N 64°32' E 010°31'3 7.1
2017-Oct-15 12:31N 64°35' E 010°35'4 7.0
2017-Oct-15 12:00N 64°38' E 010°39'4 7.1
2017-Oct-15 11:31N 64°41' E 010°43'4 7.2
2017-Oct-15 11:01N 64°44' E 010°48'4 7.9
2017-Oct-15 10:31N 64°46' E 010°55'4 7.7
2017-Oct-15 10:01N 64°47' E 011°04'4 8.2
2017-Oct-15 09:31N 64°50' E 011°11'3 5.1
2017-Oct-15 09:01N 64°52' E 011°15'0 0.0
2017-Oct-15 08:30N 64°52' E 011°15'0 0.0
2017-Oct-15 08:00N 64°52' E 011°15'0 0.0
2017-Oct-15 07:31N 64°52' E 011°15'0 0.0
2017-Oct-15 07:00N 64°52' E 011°15'0 0.0
2017-Oct-15 06:30N 64°52' E 011°15'0 0.0
2017-Oct-15 06:01N 64°52' E 011°15'0 0.0
2017-Oct-15 05:30N 64°52' E 011°15'0 0.0
2017-Oct-15 05:01N 64°52' E 011°15'0 0.0
2017-Oct-15 04:30N 64°52' E 011°15'0 0.0
2017-Oct-15 04:00N 64°52' E 011°15'0 0.0
2017-Oct-15 03:31N 64°52' E 011°15'0 0.0
2017-Oct-15 03:00N 64°52' E 011°15'0 0.0
2017-Oct-15 02:31N 64°52' E 011°15'0 0.0
2017-Oct-15 02:00N 64°52' E 011°15'0 0.0
2017-Oct-15 01:30N 64°52' E 011°15'0 0.0
2017-Oct-15 01:01N 64°52' E 011°15'0 0.0
2017-Oct-15 00:30N 64°52' E 011°15'0 0.0
2017-Oct-15 00:01N 64°52' E 011°15'0 0.0
2017-Oct-14 23:30N 64°52' E 011°15'0 0.0
2017-Oct-14 23:01N 64°52' E 011°15'0 0.0
2017-Oct-14 22:31N 64°52' E 011°15'0 0.0
2017-Oct-14 22:00N 64°52' E 011°15'0 0.0
2017-Oct-14 21:30N 64°52' E 011°15'0 0.0
2017-Oct-14 21:01N 64°52' E 011°15'0 0.0
2017-Oct-14 20:31N 64°52' E 011°15'0 0.0
2017-Oct-14 20:01N 64°52' E 011°15'0 0.0
2017-Oct-14 19:31N 64°52' E 011°15'0 0.0
2017-Oct-14 19:00N 64°52' E 011°15'0 0.0
2017-Oct-14 18:31N 64°52' E 011°15'0 0.0
2017-Oct-14 18:00N 64°52' E 011°15'0 0.0
2017-Oct-14 17:31N 64°52' E 011°15'0 0.0
2017-Oct-14 17:00N 64°52' E 011°15'0 0.0
2017-Oct-14 16:30N 64°52' E 011°15'2 3.5
2017-Oct-14 16:01N 64°53' E 011°18'4 7.7
2017-Oct-14 15:31N 64°55' E 011°25'4 8.2
2017-Oct-14 15:01N 64°58' E 011°31'4 8.2
2017-Oct-14 14:31N 65°01' E 011°40'4 8.2
2017-Oct-14 14:00N 65°04' E 011°45'4 8.4
2017-Oct-14 13:30N 65°08' E 011°49'4 8.4
2017-Oct-14 13:00N 65°12' E 011°52'4 8.0
2017-Oct-14 12:30N 65°15' E 011°56'4 8.0
2017-Oct-14 12:00N 65°19' E 012°00'4 8.1
2017-Oct-14 11:30N 65°23' E 012°05'4 8.3
2017-Oct-14 11:00N 65°26' E 012°10'3 7.0
2017-Oct-14 10:30N 65°30' E 012°12'4 8.4
2017-Oct-14 10:00N 65°34' E 012°12'4 8.1
2017-Oct-14 09:30N 65°38' E 012°12'4 8.1
2017-Oct-14 09:00N 65°42' E 012°12'4 8.2
2017-Oct-14 08:30N 65°46' E 012°11'4 8.0
2017-Oct-14 08:00N 65°50' E 012°11'4 7.9
2017-Oct-14 07:30N 65°54' E 012°11'4 7.8
2017-Oct-14 07:00N 65°58' E 012°12'3 5.3
2017-Oct-14 06:31N 66°00' E 012°16'0 0.0
2017-Oct-14 06:00N 66°00' E 012°16'0 0.0
2017-Oct-14 05:30N 66°00' E 012°16'0 0.0
2017-Oct-14 05:00N 66°00' E 012°16'0 0.0
2017-Oct-14 04:30N 66°00' E 012°16'0 0.0
2017-Oct-14 04:00N 66°00' E 012°16'0 0.0
2017-Oct-14 03:30N 66°00' E 012°16'0 0.0
2017-Oct-14 03:00N 66°00' E 012°16'0 0.0
2017-Oct-14 02:30N 66°00' E 012°16'0 0.0
2017-Oct-14 02:00N 66°00' E 012°16'0 0.0
2017-Oct-14 01:30N 66°00' E 012°16'0 0.0
2017-Oct-14 01:00N 66°00' E 012°16'0 0.0
2017-Oct-14 00:30N 66°00' E 012°16'0 0.0
2017-Oct-14 00:00N 66°00' E 012°16'0 0.0
2017-Oct-13 23:30N 66°00' E 012°16'0 0.0
2017-Oct-13 23:00N 66°00' E 012°16'0 0.0
2017-Oct-13 22:30N 66°00' E 012°16'0 0.0
2017-Oct-13 22:00N 66°00' E 012°16'0 0.0
2017-Oct-13 21:30N 66°00' E 012°16'0 0.0
2017-Oct-13 21:00N 66°00' E 012°16'0 0.0
2017-Oct-13 20:30N 66°00' E 012°16'0 0.0
2017-Oct-13 20:00N 66°00' E 012°16'0 0.0
2017-Oct-13 19:30N 66°00' E 012°16'0 0.0
2017-Oct-13 19:00N 66°00' E 012°16'0 0.0
2017-Oct-13 18:30N 66°00' E 012°16'0 0.0
2017-Oct-13 18:00N 66°00' E 012°16'0 0.0
2017-Oct-13 17:30N 66°00' E 012°16'0 0.0
2017-Oct-13 17:00N 66°00' E 012°16'0 0.0
2017-Oct-13 16:30N 66°00' E 012°16'0 0.0
2017-Oct-13 16:00N 66°00' E 012°16'0 0.0
2017-Oct-13 15:30N 66°00' E 012°16'0 0.0
2017-Oct-13 15:00N 66°00' E 012°16'0 0.0
2017-Oct-13 14:30N 66°00' E 012°16'0 0.2
2017-Oct-13 14:00N 66°00' E 012°16'3 5.2
2017-Oct-13 13:30N 66°03' E 012°14'4 9.0
2017-Oct-13 13:00N 66°06' E 012°21'5 8.9
2017-Oct-13 12:30N 66°10' E 012°25'4 8.8
2017-Oct-13 12:00N 66°14' E 012°31'4 8.9
2017-Oct-13 11:30N 66°17' E 012°40'5 9.3
2017-Oct-13 11:00N 66°19' E 012°49'4 8.9
2017-Oct-13 10:30N 66°22' E 012°57'5 9.1
2017-Oct-13 10:00N 66°27' E 012°59'4 8.9
2017-Oct-13 09:30N 66°31' E 012°58'4 8.4
2017-Oct-13 09:00N 66°35' E 013°04'4 8.8
2017-Oct-13 08:30N 66°39' E 013°06'4 8.9
2017-Oct-13 08:00N 66°43' E 013°10'12 8.7
2017-Oct-13 06:38N 66°54' E 013°25'1 9.0
2017-Oct-13 06:30N 66°54' E 013°27'4 7.8
2017-Oct-13 06:00N 66°58' E 013°32'4 9.0
2017-Oct-13 05:30N 67°01' E 013°41'5 9.3
2017-Oct-13 05:00N 67°03' E 013°51'4 8.9
2017-Oct-13 04:30N 67°06' E 013°59'4 8.6
2017-Oct-13 04:00N 67°10' E 014°04'4 8.7
2017-Oct-13 03:30N 67°14' E 014°10'4 8.8
2017-Oct-13 03:00N 67°18' E 014°16'4 8.8
2017-Oct-13 02:30N 67°21' E 014°22'4 8.7
2017-Oct-13 02:01N 67°25' E 014°27'4 8.8
2017-Oct-13 01:31N 67°29' E 014°29'63 6.9
2017-Oct-12 16:24N 68°22' E 015°59'4 9.2
2017-Oct-12 16:00N 68°26' E 016°03'5 9.2
2017-Oct-12 15:30N 68°30' E 016°08'4 8.7
2017-Oct-12 15:00N 68°33' E 016°15'4 8.6
2017-Oct-12 14:30N 68°33' E 016°27'4 8.2
2017-Oct-12 14:00N 68°37' E 016°33'5 9.4
2017-Oct-12 13:30N 68°41' E 016°39'5 9.3
2017-Oct-12 12:59N 68°45' E 016°42'4 9.1
2017-Oct-12 12:31N 68°50' E 016°44'5 9.4
2017-Oct-12 12:00N 68°54' E 016°44'2 3.3
2017-Oct-12 11:30N 68°56' E 016°43'0 0.8
2017-Oct-12 11:00N 68°56' E 016°42'0 0.2
2017-Oct-12 10:30N 68°56' E 016°42'4 8.6
2017-Oct-12 10:00N 68°52' E 016°34'5 9.2
2017-Oct-12 09:29N 68°54' E 016°22'4 9.0
2017-Oct-12 09:00N 68°57' E 016°12'5 9.3
2017-Oct-12 08:30N 68°58' E 016°00'4 8.9
2017-Oct-12 08:00N 68°59' E 015°48'4 8.8
2017-Oct-12 07:30N 68°57' E 015°36'5 9.2
2017-Oct-12 07:00N 68°53' E 015°32'4 8.1
2017-Oct-12 06:30N 68°53' E 015°21'2 3.4
2017-Oct-12 06:00N 68°54' E 015°17'0 0.0
2017-Oct-12 05:30N 68°54' E 015°17'0 0.0
2017-Oct-12 05:01N 68°54' E 015°17'0 0.0
2017-Oct-12 04:30N 68°54' E 015°17'0 0.0
2017-Oct-12 04:00N 68°54' E 015°17'0 0.0
2017-Oct-12 03:30N 68°54' E 015°17'0 0.0
2017-Oct-12 03:00N 68°54' E 015°17'2 3.9
2017-Oct-12 02:31N 68°53' E 015°21'5 8.9
2017-Oct-12 02:00N 68°48' E 015°26'510.1
2017-Oct-12 01:30N 68°43' E 015°26'5 9.7
2017-Oct-12 01:00N 68°39' E 015°22'5 9.8
2017-Oct-12 00:30N 68°35' E 015°13'5 9.4
2017-Oct-12 00:00N 68°31' E 015°10'4 8.3
2017-Oct-11 23:31N 68°26' E 015°10'4 8.4
2017-Oct-11 23:00N 68°23' E 015°05'5 9.2
2017-Oct-11 22:30N 68°19' E 014°58'5 9.3
2017-Oct-11 22:01N 68°14' E 014°56'5 9.2
2017-Oct-11 21:30N 68°10' E 014°53'5 9.1
2017-Oct-11 21:00N 68°05' E 014°51'5 9.5
2017-Oct-11 20:30N 68°01' E 014°48'5 9.6
2017-Oct-11 20:00N 67°56' E 014°45'5 9.3
2017-Oct-11 19:30N 67°51' E 014°42'5 9.3
2017-Oct-11 19:00N 67°48' E 014°33'5 9.3
2017-Oct-11 18:30N 67°44' E 014°31'5 9.6
2017-Oct-11 18:00N 67°39' E 014°31'5 9.9
2017-Oct-11 17:30N 67°34' E 014°30'5 9.7
2017-Oct-11 17:01N 67°29' E 014°29'23 1.3
2017-Oct-11 00:00N 67°09' E 014°02'5 9.9
2017-Oct-10 23:31N 67°05' E 013°55'5 9.6
2017-Oct-10 23:01N 67°02' E 013°46'5 9.6
2017-Oct-10 22:30N 66°59' E 013°35'4 8.9
2017-Oct-10 22:00N 66°55' E 013°29'5 9.8
2017-Oct-10 21:30N 66°52' E 013°21'5 9.5
2017-Oct-10 21:00N 66°48' E 013°15'5 9.8
2017-Oct-10 20:30N 66°43' E 013°11'510.0
2017-Oct-10 20:00N 66°38' E 013°06'5 9.8
2017-Oct-10 19:30N 66°34' E 013°04'4 8.3
2017-Oct-10 19:00N 66°30' E 012°59'5 9.6
2017-Oct-10 18:30N 66°25' E 012°59'5 9.8
2017-Oct-10 18:00N 66°20' E 012°57'5 9.8
2017-Oct-10 17:30N 66°15' E 012°55'5 9.7
2017-Oct-10 17:01N 66°11' E 012°51'5 9.5
2017-Oct-10 16:31N 66°07' E 012°45'510.2
2017-Oct-10 16:00N 66°03' E 012°37'510.0
2017-Oct-10 15:30N 65°59' E 012°29'510.5
2017-Oct-10 15:00N 65°54' E 012°22'1010.3
2017-Oct-10 14:00N 65°44' E 012°18'510.0
2017-Oct-10 13:30N 65°39' E 012°15'510.0
2017-Oct-10 13:00N 65°34' E 012°14'5 9.8
2017-Oct-10 12:30N 65°30' E 012°12'4 8.9
2017-Oct-10 12:00N 65°25' E 012°09'5 9.8
2017-Oct-10 11:30N 65°21' E 012°03'5 9.9
2017-Oct-10 11:01N 65°17' E 011°58'510.0
2017-Oct-10 10:31N 65°12' E 011°53'5 9.6
2017-Oct-10 10:01N 65°08' E 011°49'5 9.6
2017-Oct-10 09:31N 65°03' E 011°44'5 9.5
2017-Oct-10 09:00N 64°60' E 011°37'5 9.4
2017-Oct-10 08:31N 64°57' E 011°28'5 9.6
2017-Oct-10 08:01N 64°54' E 011°20'4 7.2
2017-Oct-10 07:31N 64°51' E 011°13'5 9.5
2017-Oct-10 07:00N 64°48' E 011°06'5 9.7
2017-Oct-10 06:30N 64°44' E 010°59'5 9.6
2017-Oct-10 06:00N 64°40' E 010°52'5 9.3
2017-Oct-10 05:30N 64°36' E 010°44'4 9.0
2017-Oct-10 05:01N 64°33' E 010°38'5 9.1
2017-Oct-10 04:30N 64°29' E 010°32'5 9.0
2017-Oct-10 04:00N 64°25' E 010°27'5 9.8
2017-Oct-10 03:30N 64°21' E 010°22'5 9.7
2017-Oct-10 03:00N 64°16' E 010°19'4 8.5
2017-Oct-10 02:30N 64°13' E 010°13'5 9.8
2017-Oct-10 02:00N 64°09' E 010°07'5 9.5
2017-Oct-10 01:30N 64°05' E 010°00'4 7.4
2017-Oct-10 01:00N 64°01' E 009°60'5 9.5
2017-Oct-10 00:31N 63°57' E 009°55'4 8.4
2017-Oct-10 00:01N 63°53' E 009°52'0 0.0
2017-Oct-09 23:30N 63°53' E 009°52'0 0.0
2017-Oct-09 23:01N 63°53' E 009°52'0 0.0
2017-Oct-09 22:30N 63°53' E 009°52'  

Dump ship's entire track history